<?xml version="1.0" encoding="utf-8"?>
<gpx xmlns:xsi="http://www.w3.org/2001/XMLSchema-instance" xmlns:xsd="http://www.w3.org/2001/XMLSchema" version="1.1" creator="Shapelink.com" xmlns="http://www.topografix.com/GPX/1/1" xmlns:gpxtpx="http://www.garmin.com/xmlschemas/TrackPointExtension/v1">
  <metadata>
    <name>Cycling 20.81 km, 2020-06-27</name>
    <desc></desc>
    <author><name>Marian Moron</name></author> 
    <time>2020-06-27T15:05:31Z</time>
  </metadata>
  <trk>
    <name>Cycling 20.81 km, 2020-06-27</name>
    <trkseg>
      <trkpt lat="51.228992460842" lon="4.448256560372">
        <ele>23.8</ele>
        <time>2020-06-27T15:05:31Z</time>
      </trkpt>
      <trkpt lat="51.22858275357" lon="4.447650632821">
        <ele>2.8</ele>
        <time>2020-06-27T15:05:52Z</time>
      </trkpt>
      <trkpt lat="51.228191821754" lon="4.447158363834">
        <ele>0</ele>
        <time>2020-06-27T15:06:21Z</time>
      </trkpt>
      <trkpt lat="51.228142620001" lon="4.447206056845">
        <ele>0</ele>
        <time>2020-06-27T15:06:24Z</time>
      </trkpt>
      <trkpt lat="51.227761997922" lon="4.447820785391">
        <ele>0.6</ele>
        <time>2020-06-27T15:06:46Z</time>
      </trkpt>
      <trkpt lat="51.227346507139" lon="4.448383546157">
        <ele>2.2</ele>
        <time>2020-06-27T15:07:10Z</time>
      </trkpt>
      <trkpt lat="51.226929339976" lon="4.44899014426">
        <ele>5.6</ele>
        <time>2020-06-27T15:07:34Z</time>
      </trkpt>
      <trkpt lat="51.226624657911" lon="4.449328605382">
        <ele>2.8</ele>
        <time>2020-06-27T15:07:49Z</time>
      </trkpt>
      <trkpt lat="51.226574534149" lon="4.449309829926">
        <ele>3</ele>
        <time>2020-06-27T15:07:51Z</time>
      </trkpt>
      <trkpt lat="51.22627354012" lon="4.448875563687">
        <ele>0</ele>
        <time>2020-06-27T15:08:10Z</time>
      </trkpt>
      <trkpt lat="51.225983861656" lon="4.449454836796">
        <ele>0</ele>
        <time>2020-06-27T15:08:28Z</time>
      </trkpt>
      <trkpt lat="51.225728884258" lon="4.449664551934">
        <ele>0</ele>
        <time>2020-06-27T15:08:40Z</time>
      </trkpt>
      <trkpt lat="51.225585134673" lon="4.449695564964">
        <ele>0</ele>
        <time>2020-06-27T15:08:46Z</time>
      </trkpt>
      <trkpt lat="51.225040814087" lon="4.449896395288">
        <ele>0</ele>
        <time>2020-06-27T15:09:10Z</time>
      </trkpt>
      <trkpt lat="51.224617192861" lon="4.450502322839">
        <ele>0</ele>
        <time>2020-06-27T15:09:24Z</time>
      </trkpt>
      <trkpt lat="51.224221231905" lon="4.451099281757">
        <ele>0</ele>
        <time>2020-06-27T15:09:41Z</time>
      </trkpt>
      <trkpt lat="51.22410933354" lon="4.451282007177">
        <ele>0</ele>
        <time>2020-06-27T15:09:46Z</time>
      </trkpt>
      <trkpt lat="51.223591918853" lon="4.451309332171">
        <ele>0</ele>
        <time>2020-06-27T15:10:12Z</time>
      </trkpt>
      <trkpt lat="51.223573394854" lon="4.451310757094">
        <ele>0</ele>
        <time>2020-06-27T15:10:13Z</time>
      </trkpt>
      <trkpt lat="51.223493431528" lon="4.451320563917">
        <ele>0</ele>
        <time>2020-06-27T15:10:17Z</time>
      </trkpt>
      <trkpt lat="51.22345554534" lon="4.451292736009">
        <ele>0</ele>
        <time>2020-06-27T15:10:19Z</time>
      </trkpt>
      <trkpt lat="51.222939387938" lon="4.45110322125">
        <ele>0</ele>
        <time>2020-06-27T15:10:45Z</time>
      </trkpt>
      <trkpt lat="51.222921702129" lon="4.451089977848">
        <ele>0</ele>
        <time>2020-06-27T15:10:48Z</time>
      </trkpt>
      <trkpt lat="51.222376710991" lon="4.451097689196">
        <ele>0</ele>
        <time>2020-06-27T15:11:07Z</time>
      </trkpt>
      <trkpt lat="51.221876143923" lon="4.451422404002">
        <ele>0</ele>
        <time>2020-06-27T15:11:32Z</time>
      </trkpt>
      <trkpt lat="51.22135671758" lon="4.451632286778">
        <ele>0</ele>
        <time>2020-06-27T15:12:01Z</time>
      </trkpt>
      <trkpt lat="51.220803260723" lon="4.451776958372">
        <ele>0</ele>
        <time>2020-06-27T15:12:24Z</time>
      </trkpt>
      <trkpt lat="51.220253910997" lon="4.451906039632">
        <ele>0</ele>
        <time>2020-06-27T15:12:44Z</time>
      </trkpt>
      <trkpt lat="51.219712607895" lon="4.45199924636">
        <ele>0</ele>
        <time>2020-06-27T15:13:04Z</time>
      </trkpt>
      <trkpt lat="51.219148338387" lon="4.45209396183">
        <ele>0</ele>
        <time>2020-06-27T15:13:24Z</time>
      </trkpt>
      <trkpt lat="51.219052868546" lon="4.452802483837">
        <ele>0</ele>
        <time>2020-06-27T15:13:43Z</time>
      </trkpt>
      <trkpt lat="51.219342882286" lon="4.453541851236">
        <ele>0</ele>
        <time>2020-06-27T15:13:56Z</time>
      </trkpt>
      <trkpt lat="51.219620658452" lon="4.454315584425">
        <ele>0</ele>
        <time>2020-06-27T15:14:15Z</time>
      </trkpt>
      <trkpt lat="51.219988623862" lon="4.454986639339">
        <ele>0</ele>
        <time>2020-06-27T15:14:35Z</time>
      </trkpt>
      <trkpt lat="51.220040172547" lon="4.455219656159">
        <ele>0</ele>
        <time>2020-06-27T15:14:46Z</time>
      </trkpt>
      <trkpt lat="51.220015278304" lon="4.455246897334">
        <ele>0</ele>
        <time>2020-06-27T15:15:08Z</time>
      </trkpt>
      <trkpt lat="51.220004381834" lon="4.455265002238">
        <ele>0</ele>
        <time>2020-06-27T15:15:09Z</time>
      </trkpt>
      <trkpt lat="51.219995077925" lon="4.455274725242">
        <ele>0</ele>
        <time>2020-06-27T15:15:11Z</time>
      </trkpt>
      <trkpt lat="51.21995358752" lon="4.455251004465">
        <ele>0</ele>
        <time>2020-06-27T15:15:14Z</time>
      </trkpt>
      <trkpt lat="51.219649827464" lon="4.454531753626">
        <ele>0</ele>
        <time>2020-06-27T15:15:34Z</time>
      </trkpt>
      <trkpt lat="51.219481938007" lon="4.453825913827">
        <ele>0</ele>
        <time>2020-06-27T15:16:26Z</time>
      </trkpt>
      <trkpt lat="51.219467856415" lon="4.453902524393">
        <ele>0</ele>
        <time>2020-06-27T15:16:45Z</time>
      </trkpt>
      <trkpt lat="51.21895027409" lon="4.454253558365">
        <ele>0</ele>
        <time>2020-06-27T15:17:07Z</time>
      </trkpt>
      <trkpt lat="51.218698733271" lon="4.454500992053">
        <ele>0</ele>
        <time>2020-06-27T15:17:17Z</time>
      </trkpt>
      <trkpt lat="51.218660930902" lon="4.454536028395">
        <ele>0</ele>
        <time>2020-06-27T15:17:19Z</time>
      </trkpt>
      <trkpt lat="51.218197328013" lon="4.455009773383">
        <ele>0</ele>
        <time>2020-06-27T15:17:41Z</time>
      </trkpt>
      <trkpt lat="51.218094063005" lon="4.455847209012">
        <ele>0</ele>
        <time>2020-06-27T15:18:06Z</time>
      </trkpt>
      <trkpt lat="51.218022481579" lon="4.456735355136">
        <ele>0</ele>
        <time>2020-06-27T15:18:31Z</time>
      </trkpt>
      <trkpt lat="51.217931537964" lon="4.457588129642">
        <ele>0</ele>
        <time>2020-06-27T15:18:54Z</time>
      </trkpt>
      <trkpt lat="51.2179855174" lon="4.458445011279">
        <ele>0</ele>
        <time>2020-06-27T15:19:18Z</time>
      </trkpt>
      <trkpt lat="51.217940003683" lon="4.45929988126">
        <ele>0</ele>
        <time>2020-06-27T15:19:39Z</time>
      </trkpt>
      <trkpt lat="51.217876720338" lon="4.460152152852">
        <ele>0</ele>
        <time>2020-06-27T15:20:01Z</time>
      </trkpt>
      <trkpt lat="51.217848221878" lon="4.461030240696">
        <ele>0</ele>
        <time>2020-06-27T15:20:21Z</time>
      </trkpt>
      <trkpt lat="51.217812598803" lon="4.461904472866">
        <ele>0</ele>
        <time>2020-06-27T15:20:43Z</time>
      </trkpt>
      <trkpt lat="51.217770773122" lon="4.462791613162">
        <ele>0</ele>
        <time>2020-06-27T15:21:04Z</time>
      </trkpt>
      <trkpt lat="51.217747387621" lon="4.463693589421">
        <ele>0</ele>
        <time>2020-06-27T15:21:26Z</time>
      </trkpt>
      <trkpt lat="51.217719727351" lon="4.464559774967">
        <ele>0</ele>
        <time>2020-06-27T15:21:44Z</time>
      </trkpt>
      <trkpt lat="51.217640015482" lon="4.465407939428">
        <ele>0</ele>
        <time>2020-06-27T15:22:05Z</time>
      </trkpt>
      <trkpt lat="51.217590981367" lon="4.466291810783">
        <ele>0</ele>
        <time>2020-06-27T15:22:23Z</time>
      </trkpt>
      <trkpt lat="51.217586036046" lon="4.467152799551">
        <ele>0</ele>
        <time>2020-06-27T15:22:44Z</time>
      </trkpt>
      <trkpt lat="51.217547898401" lon="4.468010100283">
        <ele>0</ele>
        <time>2020-06-27T15:23:01Z</time>
      </trkpt>
      <trkpt lat="51.217564159287" lon="4.468060894597">
        <ele>0</ele>
        <time>2020-06-27T15:23:02Z</time>
      </trkpt>
      <trkpt lat="51.217605733511" lon="4.468099618975">
        <ele>0</ele>
        <time>2020-06-27T15:23:06Z</time>
      </trkpt>
      <trkpt lat="51.217730372364" lon="4.468118729707">
        <ele>0</ele>
        <time>2020-06-27T15:23:15Z</time>
      </trkpt>
      <trkpt lat="51.21782123216" lon="4.46892816979">
        <ele>0</ele>
        <time>2020-06-27T15:23:37Z</time>
      </trkpt>
      <trkpt lat="51.217802708161" lon="4.469115169979">
        <ele>0</ele>
        <time>2020-06-27T15:23:42Z</time>
      </trkpt>
      <trkpt lat="51.217827770042" lon="4.469161940981">
        <ele>0</ele>
        <time>2020-06-27T15:23:44Z</time>
      </trkpt>
      <trkpt lat="51.217945032823" lon="4.469462515915">
        <ele>0</ele>
        <time>2020-06-27T15:23:57Z</time>
      </trkpt>
      <trkpt lat="51.218220713514" lon="4.469470730177">
        <ele>0</ele>
        <time>2020-06-27T15:24:10Z</time>
      </trkpt>
      <trkpt lat="51.218365385108" lon="4.469154816366">
        <ele>0</ele>
        <time>2020-06-27T15:24:21Z</time>
      </trkpt>
      <trkpt lat="51.218343843625" lon="4.468905873936">
        <ele>21.6</ele>
        <time>2020-06-27T15:26:20Z</time>
      </trkpt>
      <trkpt lat="51.218358679588" lon="4.468869831766">
        <ele>21.8</ele>
        <time>2020-06-27T15:26:23Z</time>
      </trkpt>
      <trkpt lat="51.218429590462" lon="4.468734296443">
        <ele>20</ele>
        <time>2020-06-27T15:26:30Z</time>
      </trkpt>
      <trkpt lat="51.218450126117" lon="4.468749132406">
        <ele>18.2</ele>
        <time>2020-06-27T15:26:32Z</time>
      </trkpt>
      <trkpt lat="51.218439397285" lon="4.468742510705">
        <ele>14.6</ele>
        <time>2020-06-27T15:26:35Z</time>
      </trkpt>
      <trkpt lat="51.218469404487" lon="4.468384603575">
        <ele>0.6</ele>
        <time>2020-06-27T15:26:53Z</time>
      </trkpt>
      <trkpt lat="51.217925838272" lon="4.468300449299">
        <ele>0</ele>
        <time>2020-06-27T15:27:15Z</time>
      </trkpt>
      <trkpt lat="51.217573295558" lon="4.468129458539">
        <ele>0</ele>
        <time>2020-06-27T15:27:28Z</time>
      </trkpt>
      <trkpt lat="51.217509844575" lon="4.46891811151">
        <ele>0</ele>
        <time>2020-06-27T15:27:47Z</time>
      </trkpt>
      <trkpt lat="51.217554352464" lon="4.469013329894">
        <ele>0</ele>
        <time>2020-06-27T15:27:50Z</time>
      </trkpt>
      <trkpt lat="51.217370537397" lon="4.469848418591">
        <ele>0</ele>
        <time>2020-06-27T15:28:12Z</time>
      </trkpt>
      <trkpt lat="51.217365508257" lon="4.470712089567">
        <ele>0</ele>
        <time>2020-06-27T15:28:29Z</time>
      </trkpt>
      <trkpt lat="51.217405657558" lon="4.471603169356">
        <ele>0</ele>
        <time>2020-06-27T15:28:48Z</time>
      </trkpt>
      <trkpt lat="51.217388474663" lon="4.472259304488">
        <ele>0</ele>
        <time>2020-06-27T15:29:03Z</time>
      </trkpt>
      <trkpt lat="51.217365759714" lon="4.473129764803">
        <ele>0</ele>
        <time>2020-06-27T15:29:22Z</time>
      </trkpt>
      <trkpt lat="51.217291328442" lon="4.473993603417">
        <ele>0</ele>
        <time>2020-06-27T15:29:42Z</time>
      </trkpt>
      <trkpt lat="51.217228548011" lon="4.474874122012">
        <ele>0</ele>
        <time>2020-06-27T15:30:04Z</time>
      </trkpt>
      <trkpt lat="51.217175406765" lon="4.475742738309">
        <ele>0</ele>
        <time>2020-06-27T15:30:28Z</time>
      </trkpt>
      <trkpt lat="51.217166438132" lon="4.476613701538">
        <ele>0</ele>
        <time>2020-06-27T15:30:48Z</time>
      </trkpt>
      <trkpt lat="51.217152188902" lon="4.477507547354">
        <ele>0</ele>
        <time>2020-06-27T15:31:08Z</time>
      </trkpt>
      <trkpt lat="51.217129473953" lon="4.478375241642">
        <ele>0</ele>
        <time>2020-06-27T15:31:25Z</time>
      </trkpt>
      <trkpt lat="51.217070297739" lon="4.479257688074">
        <ele>0</ele>
        <time>2020-06-27T15:31:42Z</time>
      </trkpt>
      <trkpt lat="51.216997542847" lon="4.480127813113">
        <ele>0</ele>
        <time>2020-06-27T15:32:05Z</time>
      </trkpt>
      <trkpt lat="51.216979521762" lon="4.480988382786">
        <ele>0</ele>
        <time>2020-06-27T15:32:25Z</time>
      </trkpt>
      <trkpt lat="51.216928475991" lon="4.481829674089">
        <ele>0</ele>
        <time>2020-06-27T15:32:46Z</time>
      </trkpt>
      <trkpt lat="51.216907940336" lon="4.481845599699">
        <ele>0</ele>
        <time>2020-06-27T15:32:48Z</time>
      </trkpt>
      <trkpt lat="51.217010618611" lon="4.481927239405">
        <ele>0</ele>
        <time>2020-06-27T15:36:24Z</time>
      </trkpt>
      <trkpt lat="51.217021095986" lon="4.482194119101">
        <ele>0</ele>
        <time>2020-06-27T15:36:32Z</time>
      </trkpt>
      <trkpt lat="51.216967703283" lon="4.482312136253">
        <ele>0</ele>
        <time>2020-06-27T15:36:36Z</time>
      </trkpt>
      <trkpt lat="51.216930990561" lon="4.482627714788">
        <ele>0</ele>
        <time>2020-06-27T15:36:43Z</time>
      </trkpt>
      <trkpt lat="51.216886147396" lon="4.48348836828">
        <ele>0</ele>
        <time>2020-06-27T15:36:59Z</time>
      </trkpt>
      <trkpt lat="51.216857481298" lon="4.484283140038">
        <ele>0</ele>
        <time>2020-06-27T15:37:14Z</time>
      </trkpt>
      <trkpt lat="51.216836694186" lon="4.484489586235">
        <ele>0</ele>
        <time>2020-06-27T15:37:18Z</time>
      </trkpt>
      <trkpt lat="51.216841136593" lon="4.484646076308">
        <ele>0</ele>
        <time>2020-06-27T15:37:21Z</time>
      </trkpt>
      <trkpt lat="51.21680450769" lon="4.484813881946">
        <ele>0</ele>
        <time>2020-06-27T15:37:24Z</time>
      </trkpt>
      <trkpt lat="51.216801238749" lon="4.485347808976">
        <ele>0</ele>
        <time>2020-06-27T15:37:34Z</time>
      </trkpt>
      <trkpt lat="51.21680534588" lon="4.485433220537">
        <ele>0</ele>
        <time>2020-06-27T15:37:36Z</time>
      </trkpt>
      <trkpt lat="51.216792018659" lon="4.485547633472">
        <ele>0</ele>
        <time>2020-06-27T15:37:39Z</time>
      </trkpt>
      <trkpt lat="51.216801909301" lon="4.48563664925">
        <ele>0</ele>
        <time>2020-06-27T15:37:41Z</time>
      </trkpt>
      <trkpt lat="51.216785480777" lon="4.485824571448">
        <ele>0</ele>
        <time>2020-06-27T15:37:45Z</time>
      </trkpt>
      <trkpt lat="51.216759915982" lon="4.485929848112">
        <ele>0</ele>
        <time>2020-06-27T15:37:47Z</time>
      </trkpt>
      <trkpt lat="51.216765615674" lon="4.486097905207">
        <ele>0</ele>
        <time>2020-06-27T15:37:50Z</time>
      </trkpt>
      <trkpt lat="51.21676176" lon="4.486767786655">
        <ele>0</ele>
        <time>2020-06-27T15:38:03Z</time>
      </trkpt>
      <trkpt lat="51.21684390262" lon="4.486694528849">
        <ele>0</ele>
        <time>2020-06-27T15:38:06Z</time>
      </trkpt>
      <trkpt lat="51.216810710296" lon="4.486615236075">
        <ele>0</ele>
        <time>2020-06-27T15:38:08Z</time>
      </trkpt>
      <trkpt lat="51.216743906553" lon="4.486695031763">
        <ele>0</ele>
        <time>2020-06-27T15:38:11Z</time>
      </trkpt>
      <trkpt lat="51.216818002549" lon="4.48677910222">
        <ele>0</ele>
        <time>2020-06-27T15:38:14Z</time>
      </trkpt>
      <trkpt lat="51.21705764107" lon="4.486748508285">
        <ele>0</ele>
        <time>2020-06-27T15:38:21Z</time>
      </trkpt>
      <trkpt lat="51.217151015436" lon="4.487593319986">
        <ele>0</ele>
        <time>2020-06-27T15:38:37Z</time>
      </trkpt>
      <trkpt lat="51.217152440359" lon="4.487815859431">
        <ele>0</ele>
        <time>2020-06-27T15:38:41Z</time>
      </trkpt>
      <trkpt lat="51.217139364595" lon="4.487989029485">
        <ele>0</ele>
        <time>2020-06-27T15:38:44Z</time>
      </trkpt>
      <trkpt lat="51.217242964879" lon="4.488805258907">
        <ele>0</ele>
        <time>2020-06-27T15:38:59Z</time>
      </trkpt>
      <trkpt lat="51.2172814378" lon="4.488892263029">
        <ele>0</ele>
        <time>2020-06-27T15:39:01Z</time>
      </trkpt>
      <trkpt lat="51.217264003448" lon="4.489051267672">
        <ele>0</ele>
        <time>2020-06-27T15:39:04Z</time>
      </trkpt>
      <trkpt lat="51.217313037563" lon="4.489190407212">
        <ele>0</ele>
        <time>2020-06-27T15:39:07Z</time>
      </trkpt>
      <trkpt lat="51.217391156871" lon="4.490070087617">
        <ele>0</ele>
        <time>2020-06-27T15:39:24Z</time>
      </trkpt>
      <trkpt lat="51.217428540145" lon="4.490629914718">
        <ele>0</ele>
        <time>2020-06-27T15:39:34Z</time>
      </trkpt>
      <trkpt lat="51.217508838747" lon="4.49120223085">
        <ele>0</ele>
        <time>2020-06-27T15:39:47Z</time>
      </trkpt>
      <trkpt lat="51.217648229744" lon="4.49122653836">
        <ele>0</ele>
        <time>2020-06-27T15:39:51Z</time>
      </trkpt>
      <trkpt lat="51.218185174258" lon="4.491483778871">
        <ele>0</ele>
        <time>2020-06-27T15:40:06Z</time>
      </trkpt>
      <trkpt lat="51.218451718678" lon="4.491658373848">
        <ele>0</ele>
        <time>2020-06-27T15:40:20Z</time>
      </trkpt>
      <trkpt lat="51.218628492949" lon="4.492431185028">
        <ele>0</ele>
        <time>2020-06-27T15:40:43Z</time>
      </trkpt>
      <trkpt lat="51.219232911758" lon="4.492138824356">
        <ele>0</ele>
        <time>2020-06-27T15:41:08Z</time>
      </trkpt>
      <trkpt lat="51.219310109057" lon="4.49209657958">
        <ele>0</ele>
        <time>2020-06-27T15:41:15Z</time>
      </trkpt>
      <trkpt lat="51.219450757339" lon="4.492958657995">
        <ele>0</ele>
        <time>2020-06-27T15:41:45Z</time>
      </trkpt>
      <trkpt lat="51.219541952411" lon="4.493798775832">
        <ele>0</ele>
        <time>2020-06-27T15:42:03Z</time>
      </trkpt>
      <trkpt lat="51.2190416368" lon="4.494207728733">
        <ele>0</ele>
        <time>2020-06-27T15:42:27Z</time>
      </trkpt>
      <trkpt lat="51.218545260682" lon="4.494593631409">
        <ele>0</ele>
        <time>2020-06-27T15:42:42Z</time>
      </trkpt>
      <trkpt lat="51.218058859025" lon="4.49498079137">
        <ele>0</ele>
        <time>2020-06-27T15:43:04Z</time>
      </trkpt>
      <trkpt lat="51.217578324698" lon="4.495410112288">
        <ele>0</ele>
        <time>2020-06-27T15:43:25Z</time>
      </trkpt>
      <trkpt lat="51.217051689921" lon="4.495552772226">
        <ele>0</ele>
        <time>2020-06-27T15:43:48Z</time>
      </trkpt>
      <trkpt lat="51.216515248321" lon="4.495398796723">
        <ele>0</ele>
        <time>2020-06-27T15:44:07Z</time>
      </trkpt>
      <trkpt lat="51.215967239699" lon="4.495221603357">
        <ele>0</ele>
        <time>2020-06-27T15:44:26Z</time>
      </trkpt>
      <trkpt lat="51.21543825799" lon="4.49497157128">
        <ele>0</ele>
        <time>2020-06-27T15:44:44Z</time>
      </trkpt>
      <trkpt lat="51.215345470357" lon="4.494927231029">
        <ele>0</ele>
        <time>2020-06-27T15:44:48Z</time>
      </trkpt>
      <trkpt lat="51.215341698502" lon="4.494936115843">
        <ele>0</ele>
        <time>2020-06-27T15:44:55Z</time>
      </trkpt>
      <trkpt lat="51.215335747353" lon="4.494966625959">
        <ele>0</ele>
        <time>2020-06-27T15:45:25Z</time>
      </trkpt>
      <trkpt lat="51.215294005491" lon="4.495339117595">
        <ele>0</ele>
        <time>2020-06-27T15:45:39Z</time>
      </trkpt>
      <trkpt lat="51.215265255574" lon="4.495316318827">
        <ele>0</ele>
        <time>2020-06-27T15:45:43Z</time>
      </trkpt>
      <trkpt lat="51.21524295972" lon="4.495304584167">
        <ele>0</ele>
        <time>2020-06-27T15:46:01Z</time>
      </trkpt>
      <trkpt lat="51.215132151002" lon="4.495277594449">
        <ele>0</ele>
        <time>2020-06-27T15:46:06Z</time>
      </trkpt>
      <trkpt lat="51.214758318262" lon="4.4958248487">
        <ele>0</ele>
        <time>2020-06-27T15:46:26Z</time>
      </trkpt>
      <trkpt lat="51.214214668228" lon="4.495922749292">
        <ele>0</ele>
        <time>2020-06-27T15:46:48Z</time>
      </trkpt>
      <trkpt lat="51.213677136981" lon="4.496159537967">
        <ele>0</ele>
        <time>2020-06-27T15:47:11Z</time>
      </trkpt>
      <trkpt lat="51.213152849136" lon="4.496453239743">
        <ele>0.6</ele>
        <time>2020-06-27T15:47:33Z</time>
      </trkpt>
      <trkpt lat="51.212612300405" lon="4.496317201506">
        <ele>0</ele>
        <time>2020-06-27T15:47:53Z</time>
      </trkpt>
      <trkpt lat="51.212515740917" lon="4.496202118019">
        <ele>0</ele>
        <time>2020-06-27T15:48:07Z</time>
      </trkpt>
      <trkpt lat="51.212490846674" lon="4.496208236806">
        <ele>0</ele>
        <time>2020-06-27T15:48:10Z</time>
      </trkpt>
      <trkpt lat="51.212248442126" lon="4.497005942229">
        <ele>0</ele>
        <time>2020-06-27T15:48:30Z</time>
      </trkpt>
      <trkpt lat="51.211991788348" lon="4.497777160848">
        <ele>0</ele>
        <time>2020-06-27T15:48:48Z</time>
      </trkpt>
      <trkpt lat="51.211652069941" lon="4.498479312611">
        <ele>0</ele>
        <time>2020-06-27T15:49:14Z</time>
      </trkpt>
      <trkpt lat="51.211459705336" lon="4.499334685506">
        <ele>0</ele>
        <time>2020-06-27T15:49:29Z</time>
      </trkpt>
      <trkpt lat="51.211364822228" lon="4.499486481715">
        <ele>0</ele>
        <time>2020-06-27T15:49:35Z</time>
      </trkpt>
      <trkpt lat="51.2112548517" lon="4.499189175722">
        <ele>0</ele>
        <time>2020-06-27T15:53:06Z</time>
      </trkpt>
      <trkpt lat="51.211222749023" lon="4.499218009458">
        <ele>0</ele>
        <time>2020-06-27T15:53:08Z</time>
      </trkpt>
      <trkpt lat="51.210830559922" lon="4.499811531797">
        <ele>0</ele>
        <time>2020-06-27T15:53:26Z</time>
      </trkpt>
      <trkpt lat="51.210418673356" lon="4.500106071763">
        <ele>0</ele>
        <time>2020-06-27T15:53:45Z</time>
      </trkpt>
      <trkpt lat="51.210234942108" lon="4.500896820209">
        <ele>0</ele>
        <time>2020-06-27T15:54:06Z</time>
      </trkpt>
      <trkpt lat="51.209878795177" lon="4.501533174057">
        <ele>0</ele>
        <time>2020-06-27T15:54:29Z</time>
      </trkpt>
      <trkpt lat="51.20978634282" lon="4.501679019117">
        <ele>0</ele>
        <time>2020-06-27T15:54:36Z</time>
      </trkpt>
      <trkpt lat="51.209412845356" lon="4.502341859769">
        <ele>0</ele>
        <time>2020-06-27T15:54:59Z</time>
      </trkpt>
      <trkpt lat="51.209030546897" lon="4.502998581634">
        <ele>0</ele>
        <time>2020-06-27T15:55:23Z</time>
      </trkpt>
      <trkpt lat="51.208651098284" lon="4.503651950739">
        <ele>0</ele>
        <time>2020-06-27T15:55:47Z</time>
      </trkpt>
      <trkpt lat="51.208291263317" lon="4.504326777508">
        <ele>0</ele>
        <time>2020-06-27T15:56:06Z</time>
      </trkpt>
      <trkpt lat="51.20800099812" lon="4.505089446589">
        <ele>0</ele>
        <time>2020-06-27T15:56:25Z</time>
      </trkpt>
      <trkpt lat="51.207704949412" lon="4.505827556703">
        <ele>0</ele>
        <time>2020-06-27T15:56:44Z</time>
      </trkpt>
      <trkpt lat="51.207412253464" lon="4.506495510314">
        <ele>0</ele>
        <time>2020-06-27T15:57:00Z</time>
      </trkpt>
      <trkpt lat="51.207410157989" lon="4.506640517184">
        <ele>0</ele>
        <time>2020-06-27T15:57:03Z</time>
      </trkpt>
      <trkpt lat="51.207360201865" lon="4.506678068096">
        <ele>0</ele>
        <time>2020-06-27T15:57:05Z</time>
      </trkpt>
      <trkpt lat="51.20709994387" lon="4.507470325284">
        <ele>0</ele>
        <time>2020-06-27T15:57:26Z</time>
      </trkpt>
      <trkpt lat="51.206833734726" lon="4.508256715142">
        <ele>0</ele>
        <time>2020-06-27T15:57:47Z</time>
      </trkpt>
      <trkpt lat="51.206600634087" lon="4.509031957073">
        <ele>0</ele>
        <time>2020-06-27T15:58:08Z</time>
      </trkpt>
      <trkpt lat="51.206354625322" lon="4.509805271167">
        <ele>0</ele>
        <time>2020-06-27T15:58:32Z</time>
      </trkpt>
      <trkpt lat="51.206096462802" lon="4.51057112537">
        <ele>0</ele>
        <time>2020-06-27T15:58:53Z</time>
      </trkpt>
      <trkpt lat="51.20583343878" lon="4.511368746974">
        <ele>0</ele>
        <time>2020-06-27T15:59:14Z</time>
      </trkpt>
      <trkpt lat="51.205743165717" lon="4.511615258653">
        <ele>0</ele>
        <time>2020-06-27T15:59:21Z</time>
      </trkpt>
      <trkpt lat="51.205258272802" lon="4.51116037294">
        <ele>0</ele>
        <time>2020-06-27T15:59:42Z</time>
      </trkpt>
      <trkpt lat="51.204934480005" lon="4.51101368969">
        <ele>0</ele>
        <time>2020-06-27T15:59:55Z</time>
      </trkpt>
      <trkpt lat="51.204858456172" lon="4.511002038849">
        <ele>0</ele>
        <time>2020-06-27T15:59:58Z</time>
      </trkpt>
      <trkpt lat="51.20465326726" lon="4.5109206506">
        <ele>0</ele>
        <time>2020-06-27T16:00:06Z</time>
      </trkpt>
      <trkpt lat="51.2045912412" lon="4.51007156413">
        <ele>0</ele>
        <time>2020-06-27T16:00:32Z</time>
      </trkpt>
      <trkpt lat="51.204507086924" lon="4.509199259797">
        <ele>1.8</ele>
        <time>2020-06-27T16:00:54Z</time>
      </trkpt>
      <trkpt lat="51.204522425801" lon="4.508331314052">
        <ele>0</ele>
        <time>2020-06-27T16:01:13Z</time>
      </trkpt>
      <trkpt lat="51.204479929568" lon="4.507444928127">
        <ele>0</ele>
        <time>2020-06-27T16:01:31Z</time>
      </trkpt>
      <trkpt lat="51.204449167995" lon="4.506585364282">
        <ele>0</ele>
        <time>2020-06-27T16:01:50Z</time>
      </trkpt>
      <trkpt lat="51.204448245986" lon="4.505698056348">
        <ele>0</ele>
        <time>2020-06-27T16:02:09Z</time>
      </trkpt>
      <trkpt lat="51.204470625659" lon="4.504837402856">
        <ele>0</ele>
        <time>2020-06-27T16:02:27Z</time>
      </trkpt>
      <trkpt lat="51.204491831866" lon="4.504240360119">
        <ele>0</ele>
        <time>2020-06-27T16:02:45Z</time>
      </trkpt>
      <trkpt lat="51.204525946199" lon="4.504202473931">
        <ele>0</ele>
        <time>2020-06-27T16:02:47Z</time>
      </trkpt>
      <trkpt lat="51.204677071856" lon="4.504212113116">
        <ele>0</ele>
        <time>2020-06-27T16:02:54Z</time>
      </trkpt>
      <trkpt lat="51.204673886734" lon="4.504254860806">
        <ele>0</ele>
        <time>2020-06-27T16:02:59Z</time>
      </trkpt>
      <trkpt lat="51.20446132175" lon="4.504792727329">
        <ele>0</ele>
        <time>2020-06-27T16:03:23Z</time>
      </trkpt>
      <trkpt lat="51.204474313695" lon="4.505447688995">
        <ele>0</ele>
        <time>2020-06-27T16:03:39Z</time>
      </trkpt>
      <trkpt lat="51.204490323124" lon="4.505481887147">
        <ele>0</ele>
        <time>2020-06-27T16:03:41Z</time>
      </trkpt>
      <trkpt lat="51.204475403342" lon="4.505508541589">
        <ele>0</ele>
        <time>2020-06-27T16:03:44Z</time>
      </trkpt>
      <trkpt lat="51.204456124972" lon="4.505475013989">
        <ele>0</ele>
        <time>2020-06-27T16:03:46Z</time>
      </trkpt>
      <trkpt lat="51.204439025896" lon="4.505380047062">
        <ele>0</ele>
        <time>2020-06-27T16:03:50Z</time>
      </trkpt>
      <trkpt lat="51.204375994008" lon="4.505347441471">
        <ele>0</ele>
        <time>2020-06-27T16:03:59Z</time>
      </trkpt>
      <trkpt lat="51.204322098391" lon="4.505354817543">
        <ele>0</ele>
        <time>2020-06-27T16:04:04Z</time>
      </trkpt>
      <trkpt lat="51.204322852762" lon="4.505362025977">
        <ele>0</ele>
        <time>2020-06-27T16:04:23Z</time>
      </trkpt>
      <trkpt lat="51.204305334591" lon="4.50536428909">
        <ele>0</ele>
        <time>2020-06-27T16:04:25Z</time>
      </trkpt>
      <trkpt lat="51.204154711848" lon="4.504693904728">
        <ele>0</ele>
        <time>2020-06-27T16:04:54Z</time>
      </trkpt>
      <trkpt lat="51.204139205333" lon="4.503819169644">
        <ele>0</ele>
        <time>2020-06-27T16:05:22Z</time>
      </trkpt>
      <trkpt lat="51.204153035468" lon="4.50293856723">
        <ele>0</ele>
        <time>2020-06-27T16:05:46Z</time>
      </trkpt>
      <trkpt lat="51.204140127342" lon="4.502269188696">
        <ele>0</ele>
        <time>2020-06-27T16:06:02Z</time>
      </trkpt>
      <trkpt lat="51.204150856174" lon="4.502130468251">
        <ele>1.6</ele>
        <time>2020-06-27T16:07:45Z</time>
      </trkpt>
      <trkpt lat="51.204167536155" lon="4.501252212769">
        <ele>0</ele>
        <time>2020-06-27T16:08:09Z</time>
      </trkpt>
      <trkpt lat="51.204208104551" lon="4.500352164347">
        <ele>0</ele>
        <time>2020-06-27T16:08:29Z</time>
      </trkpt>
      <trkpt lat="51.204272729" lon="4.499492600502">
        <ele>0</ele>
        <time>2020-06-27T16:08:48Z</time>
      </trkpt>
      <trkpt lat="51.204288403153" lon="4.498727165394">
        <ele>0</ele>
        <time>2020-06-27T16:09:08Z</time>
      </trkpt>
      <trkpt lat="51.203757493607" lon="4.49855650991">
        <ele>0</ele>
        <time>2020-06-27T16:09:35Z</time>
      </trkpt>
      <trkpt lat="51.203249215191" lon="4.498241685746">
        <ele>0</ele>
        <time>2020-06-27T16:09:56Z</time>
      </trkpt>
      <trkpt lat="51.202781169895" lon="4.498469673426">
        <ele>0</ele>
        <time>2020-06-27T16:10:18Z</time>
      </trkpt>
      <trkpt lat="51.202342461249" lon="4.498925564967">
        <ele>0</ele>
        <time>2020-06-27T16:10:37Z</time>
      </trkpt>
      <trkpt lat="51.201771150945" lon="4.49888759496">
        <ele>0</ele>
        <time>2020-06-27T16:10:57Z</time>
      </trkpt>
      <trkpt lat="51.201243258883" lon="4.498632114648">
        <ele>0</ele>
        <time>2020-06-27T16:11:18Z</time>
      </trkpt>
      <trkpt lat="51.200811088119" lon="4.498103971129">
        <ele>0</ele>
        <time>2020-06-27T16:11:39Z</time>
      </trkpt>
      <trkpt lat="51.20049752124" lon="4.497355635097">
        <ele>0</ele>
        <time>2020-06-27T16:11:57Z</time>
      </trkpt>
      <trkpt lat="51.200131148391" lon="4.496793209607">
        <ele>0</ele>
        <time>2020-06-27T16:12:18Z</time>
      </trkpt>
      <trkpt lat="51.199623624346" lon="4.496480480918">
        <ele>0</ele>
        <time>2020-06-27T16:12:37Z</time>
      </trkpt>
      <trkpt lat="51.199151974833" lon="4.496073455854">
        <ele>0</ele>
        <time>2020-06-27T16:13:00Z</time>
      </trkpt>
      <trkpt lat="51.198589130248" lon="4.495996845288">
        <ele>0</ele>
        <time>2020-06-27T16:13:24Z</time>
      </trkpt>
      <trkpt lat="51.198044306748" lon="4.49617102117">
        <ele>2.8</ele>
        <time>2020-06-27T16:13:43Z</time>
      </trkpt>
      <trkpt lat="51.197510882632" lon="4.496323320293">
        <ele>1</ele>
        <time>2020-06-27T16:14:00Z</time>
      </trkpt>
      <trkpt lat="51.197005370243" lon="4.496417532849">
        <ele>0</ele>
        <time>2020-06-27T16:14:23Z</time>
      </trkpt>
      <trkpt lat="51.197011069935" lon="4.496326170139">
        <ele>0</ele>
        <time>2020-06-27T16:14:26Z</time>
      </trkpt>
      <trkpt lat="51.197349950152" lon="4.495658300347">
        <ele>0</ele>
        <time>2020-06-27T16:14:43Z</time>
      </trkpt>
      <trkpt lat="51.197676341338" lon="4.494917759482">
        <ele>0</ele>
        <time>2020-06-27T16:15:02Z</time>
      </trkpt>
      <trkpt lat="51.198014131908" lon="4.494209572751">
        <ele>0</ele>
        <time>2020-06-27T16:15:22Z</time>
      </trkpt>
      <trkpt lat="51.198321831457" lon="4.493471714094">
        <ele>0</ele>
        <time>2020-06-27T16:15:41Z</time>
      </trkpt>
      <trkpt lat="51.198619472726" lon="4.492713571239">
        <ele>1.2</ele>
        <time>2020-06-27T16:16:00Z</time>
      </trkpt>
      <trkpt lat="51.198896913616" lon="4.4919524109">
        <ele>2.4</ele>
        <time>2020-06-27T16:16:20Z</time>
      </trkpt>
      <trkpt lat="51.199255575117" lon="4.491128051035">
        <ele>0</ele>
        <time>2020-06-27T16:16:44Z</time>
      </trkpt>
      <trkpt lat="51.199272841831" lon="4.491105252267">
        <ele>0</ele>
        <time>2020-06-27T16:16:48Z</time>
      </trkpt>
      <trkpt lat="51.199314164598" lon="4.491057978351">
        <ele>0</ele>
        <time>2020-06-27T16:16:52Z</time>
      </trkpt>
      <trkpt lat="51.19935758284" lon="4.491002322535">
        <ele>0</ele>
        <time>2020-06-27T16:16:55Z</time>
      </trkpt>
      <trkpt lat="51.200029392125" lon="4.49121312732">
        <ele>10.6</ele>
        <time>2020-06-27T16:23:05Z</time>
      </trkpt>
      <trkpt lat="51.20064252811" lon="4.490954713343">
        <ele>9.8</ele>
        <time>2020-06-27T16:23:30Z</time>
      </trkpt>
      <trkpt lat="51.2011881898" lon="4.491011710263">
        <ele>7</ele>
        <time>2020-06-27T16:23:50Z</time>
      </trkpt>
      <trkpt lat="51.201329592453" lon="4.49099603611">
        <ele>1</ele>
        <time>2020-06-27T16:24:02Z</time>
      </trkpt>
      <trkpt lat="51.201368819745" lon="4.49101112353">
        <ele>0</ele>
        <time>2020-06-27T16:24:11Z</time>
      </trkpt>
      <trkpt lat="51.201450040356" lon="4.491001819621">
        <ele>0</ele>
        <time>2020-06-27T16:24:17Z</time>
      </trkpt>
      <trkpt lat="51.201958570229" lon="4.490646427061">
        <ele>0</ele>
        <time>2020-06-27T16:24:36Z</time>
      </trkpt>
      <trkpt lat="51.202420664376" lon="4.490111578022">
        <ele>0</ele>
        <time>2020-06-27T16:24:54Z</time>
      </trkpt>
      <trkpt lat="51.202855601167" lon="4.489536663501">
        <ele>0</ele>
        <time>2020-06-27T16:25:15Z</time>
      </trkpt>
      <trkpt lat="51.203405453807" lon="4.48940012235">
        <ele>0</ele>
        <time>2020-06-27T16:25:35Z</time>
      </trkpt>
      <trkpt lat="51.203858746959" lon="4.489378413229">
        <ele>0</ele>
        <time>2020-06-27T16:25:54Z</time>
      </trkpt>
      <trkpt lat="51.20424423054" lon="4.48871196836">
        <ele>0</ele>
        <time>2020-06-27T16:26:13Z</time>
      </trkpt>
      <trkpt lat="51.204397870767" lon="4.488475431142">
        <ele>0</ele>
        <time>2020-06-27T16:26:21Z</time>
      </trkpt>
      <trkpt lat="51.204899359844" lon="4.488855550307">
        <ele>0</ele>
        <time>2020-06-27T16:26:42Z</time>
      </trkpt>
      <trkpt lat="51.205376876687" lon="4.489308424364">
        <ele>0</ele>
        <time>2020-06-27T16:27:02Z</time>
      </trkpt>
      <trkpt lat="51.205867972208" lon="4.489724082785">
        <ele>0.4</ele>
        <time>2020-06-27T16:27:20Z</time>
      </trkpt>
      <trkpt lat="51.205944666593" lon="4.490425312539">
        <ele>2.6</ele>
        <time>2020-06-27T16:27:38Z</time>
      </trkpt>
      <trkpt lat="51.205833522599" lon="4.490844407539">
        <ele>1.4</ele>
        <time>2020-06-27T16:27:48Z</time>
      </trkpt>
      <trkpt lat="51.205889765148" lon="4.490979775224">
        <ele>0.8</ele>
        <time>2020-06-27T16:27:51Z</time>
      </trkpt>
      <trkpt lat="51.205907115681" lon="4.491108772665">
        <ele>0</ele>
        <time>2020-06-27T16:27:53Z</time>
      </trkpt>
      <trkpt lat="51.205862523973" lon="4.491307591333">
        <ele>0</ele>
        <time>2020-06-27T16:27:56Z</time>
      </trkpt>
      <trkpt lat="51.205842491232" lon="4.491622666954">
        <ele>0</ele>
        <time>2020-06-27T16:28:01Z</time>
      </trkpt>
      <trkpt lat="51.205727994478" lon="4.492449206113">
        <ele>0</ele>
        <time>2020-06-27T16:28:19Z</time>
      </trkpt>
      <trkpt lat="51.205692706679" lon="4.493332826011">
        <ele>0</ele>
        <time>2020-06-27T16:28:36Z</time>
      </trkpt>
      <trkpt lat="51.205757079671" lon="4.494178392083">
        <ele>0.6</ele>
        <time>2020-06-27T16:28:56Z</time>
      </trkpt>
      <trkpt lat="51.205772921462" lon="4.495021946499">
        <ele>0</ele>
        <time>2020-06-27T16:29:15Z</time>
      </trkpt>
      <trkpt lat="51.206077268251" lon="4.495171311957">
        <ele>0</ele>
        <time>2020-06-27T16:29:26Z</time>
      </trkpt>
      <trkpt lat="51.206056145863" lon="4.495208024679">
        <ele>0</ele>
        <time>2020-06-27T16:29:28Z</time>
      </trkpt>
      <trkpt lat="51.205756241481" lon="4.494673846192">
        <ele>0</ele>
        <time>2020-06-27T16:29:52Z</time>
      </trkpt>
      <trkpt lat="51.205767557046" lon="4.494066745175">
        <ele>0</ele>
        <time>2020-06-27T16:30:06Z</time>
      </trkpt>
      <trkpt lat="51.205808879813" lon="4.49403196029">
        <ele>0</ele>
        <time>2020-06-27T16:30:08Z</time>
      </trkpt>
      <trkpt lat="51.206347333069" lon="4.494118126222">
        <ele>1.4</ele>
        <time>2020-06-27T16:30:29Z</time>
      </trkpt>
      <trkpt lat="51.206910261473" lon="4.494182080119">
        <ele>1</ele>
        <time>2020-06-27T16:30:49Z</time>
      </trkpt>
      <trkpt lat="51.207453743869" lon="4.494120473154">
        <ele>0</ele>
        <time>2020-06-27T16:31:09Z</time>
      </trkpt>
      <trkpt lat="51.20764392918" lon="4.494120556973">
        <ele>0</ele>
        <time>2020-06-27T16:31:16Z</time>
      </trkpt>
      <trkpt lat="51.207621717145" lon="4.494977941524">
        <ele>0</ele>
        <time>2020-06-27T16:31:35Z</time>
      </trkpt>
      <trkpt lat="51.207603025508" lon="4.495867931666">
        <ele>0</ele>
        <time>2020-06-27T16:31:53Z</time>
      </trkpt>
      <trkpt lat="51.207628674122" lon="4.496008244672">
        <ele>0.4</ele>
        <time>2020-06-27T16:31:58Z</time>
      </trkpt>
      <trkpt lat="51.208164528989" lon="4.495849407667">
        <ele>0.6</ele>
        <time>2020-06-27T16:32:19Z</time>
      </trkpt>
      <trkpt lat="51.208714716905" lon="4.495741281157">
        <ele>1.4</ele>
        <time>2020-06-27T16:32:39Z</time>
      </trkpt>
      <trkpt lat="51.208878080136" lon="4.495661485469">
        <ele>0</ele>
        <time>2020-06-27T16:32:51Z</time>
      </trkpt>
      <trkpt lat="51.208873973005" lon="4.495633489923">
        <ele>0</ele>
        <time>2020-06-27T16:32:53Z</time>
      </trkpt>
      <trkpt lat="51.208926108423" lon="4.495838930292">
        <ele>1.8</ele>
        <time>2020-06-27T16:35:36Z</time>
      </trkpt>
      <trkpt lat="51.209162813279" lon="4.496621464476">
        <ele>0.8</ele>
        <time>2020-06-27T16:35:54Z</time>
      </trkpt>
      <trkpt lat="51.209418796505" lon="4.497410620361">
        <ele>0.6</ele>
        <time>2020-06-27T16:36:10Z</time>
      </trkpt>
      <trkpt lat="51.209681652889" lon="4.49822626305">
        <ele>0.2</ele>
        <time>2020-06-27T16:36:25Z</time>
      </trkpt>
      <trkpt lat="51.209938390486" lon="4.498982394249">
        <ele>0.2</ele>
        <time>2020-06-27T16:36:40Z</time>
      </trkpt>
      <trkpt lat="51.210202839431" lon="4.4997475779">
        <ele>0</ele>
        <time>2020-06-27T16:36:53Z</time>
      </trkpt>
      <trkpt lat="51.210229912968" lon="4.499801557336">
        <ele>0</ele>
        <time>2020-06-27T16:36:54Z</time>
      </trkpt>
      <trkpt lat="51.210426971437" lon="4.500064078444">
        <ele>0</ele>
        <time>2020-06-27T16:37:01Z</time>
      </trkpt>
      <trkpt lat="51.210458487381" lon="4.500052008508">
        <ele>0</ele>
        <time>2020-06-27T16:37:03Z</time>
      </trkpt>
      <trkpt lat="51.210862159685" lon="4.499795773825">
        <ele>0</ele>
        <time>2020-06-27T16:37:20Z</time>
      </trkpt>
      <trkpt lat="51.210932735283" lon="4.499935919193">
        <ele>0</ele>
        <time>2020-06-27T16:37:24Z</time>
      </trkpt>
      <trkpt lat="51.210793763381" lon="4.50067545423">
        <ele>0</ele>
        <time>2020-06-27T16:37:41Z</time>
      </trkpt>
      <trkpt lat="51.210563596407" lon="4.500711915495">
        <ele>0</ele>
        <time>2020-06-27T16:37:49Z</time>
      </trkpt>
      <trkpt lat="51.210705921069" lon="4.501527390546">
        <ele>0</ele>
        <time>2020-06-27T16:38:05Z</time>
      </trkpt>
      <trkpt lat="51.210921838813" lon="4.502326939987">
        <ele>0.2</ele>
        <time>2020-06-27T16:38:20Z</time>
      </trkpt>
      <trkpt lat="51.211131553951" lon="4.503173679525">
        <ele>1.4</ele>
        <time>2020-06-27T16:38:35Z</time>
      </trkpt>
      <trkpt lat="51.211229538362" lon="4.504062999115">
        <ele>1.4</ele>
        <time>2020-06-27T16:38:51Z</time>
      </trkpt>
      <trkpt lat="51.211247894723" lon="4.504951145239">
        <ele>0.6</ele>
        <time>2020-06-27T16:39:08Z</time>
      </trkpt>
      <trkpt lat="51.211291061508" lon="4.505808865066">
        <ele>0.4</ele>
        <time>2020-06-27T16:39:25Z</time>
      </trkpt>
      <trkpt lat="51.211316961579" lon="4.506696592095">
        <ele>0.2</ele>
        <time>2020-06-27T16:39:43Z</time>
      </trkpt>
      <trkpt lat="51.211348142247" lon="4.507589851178">
        <ele>0.4</ele>
        <time>2020-06-27T16:40:03Z</time>
      </trkpt>
      <trkpt lat="51.211372785033" lon="4.508454611801">
        <ele>1</ele>
        <time>2020-06-27T16:40:21Z</time>
      </trkpt>
      <trkpt lat="51.211423914623" lon="4.509353570576">
        <ele>2</ele>
        <time>2020-06-27T16:40:40Z</time>
      </trkpt>
      <trkpt lat="51.211460459707" lon="4.510244315089">
        <ele>1.6</ele>
        <time>2020-06-27T16:40:59Z</time>
      </trkpt>
      <trkpt lat="51.21149122128" lon="4.51112433077">
        <ele>1.2</ele>
        <time>2020-06-27T16:41:21Z</time>
      </trkpt>
      <trkpt lat="51.211507901261" lon="4.51198682828">
        <ele>1</ele>
        <time>2020-06-27T16:41:41Z</time>
      </trkpt>
      <trkpt lat="51.2115398363" lon="4.512883859218">
        <ele>1.8</ele>
        <time>2020-06-27T16:41:59Z</time>
      </trkpt>
      <trkpt lat="51.211517372808" lon="4.51335307798">
        <ele>2</ele>
        <time>2020-06-27T16:42:08Z</time>
      </trkpt>
      <trkpt lat="51.210967101073" lon="4.513532702097">
        <ele>0.6</ele>
        <time>2020-06-27T16:42:25Z</time>
      </trkpt>
      <trkpt lat="51.210429653645" lon="4.51370763235">
        <ele>0</ele>
        <time>2020-06-27T16:42:43Z</time>
      </trkpt>
      <trkpt lat="51.210200660137" lon="4.513829337538">
        <ele>0</ele>
        <time>2020-06-27T16:42:51Z</time>
      </trkpt>
      <trkpt lat="51.210196972101" lon="4.513904523181">
        <ele>0</ele>
        <time>2020-06-27T16:42:53Z</time>
      </trkpt>
      <trkpt lat="51.210737185556" lon="4.513938721333">
        <ele>1.2</ele>
        <time>2020-06-27T16:43:19Z</time>
      </trkpt>
      <trkpt lat="51.211285277997" lon="4.513877868739">
        <ele>6</ele>
        <time>2020-06-27T16:43:50Z</time>
      </trkpt>
      <trkpt lat="51.211843009623" lon="4.513838222352">
        <ele>7</ele>
        <time>2020-06-27T16:44:17Z</time>
      </trkpt>
      <trkpt lat="51.212401747077" lon="4.513767060021">
        <ele>5.6</ele>
        <time>2020-06-27T16:44:34Z</time>
      </trkpt>
      <trkpt lat="51.212906169819" lon="4.513308905367">
        <ele>2.2</ele>
        <time>2020-06-27T16:44:44Z</time>
      </trkpt>
      <trkpt lat="51.213335574556" lon="4.512815295276">
        <ele>0</ele>
        <time>2020-06-27T16:44:53Z</time>
      </trkpt>
      <trkpt lat="51.213400282824" lon="4.512710270069">
        <ele>0</ele>
        <time>2020-06-27T16:44:55Z</time>
      </trkpt>
      <trkpt lat="51.213435486804" lon="4.512503069501">
        <ele>0</ele>
        <time>2020-06-27T16:44:59Z</time>
      </trkpt>
      <trkpt lat="51.213173971524" lon="4.511750039605">
        <ele>0</ele>
        <time>2020-06-27T16:45:17Z</time>
      </trkpt>
      <trkpt lat="51.212921424877" lon="4.510971612552">
        <ele>0</ele>
        <time>2020-06-27T16:45:41Z</time>
      </trkpt>
      <trkpt lat="51.212663429995" lon="4.510199136648">
        <ele>0</ele>
        <time>2020-06-27T16:46:05Z</time>
      </trkpt>
      <trkpt lat="51.212403758733" lon="4.509403945795">
        <ele>0</ele>
        <time>2020-06-27T16:46:29Z</time>
      </trkpt>
      <trkpt lat="51.212156660321" lon="4.508623590905">
        <ele>0</ele>
        <time>2020-06-27T16:46:52Z</time>
      </trkpt>
      <trkpt lat="51.212036128599" lon="4.507761847766">
        <ele>0</ele>
        <time>2020-06-27T16:47:13Z</time>
      </trkpt>
      <trkpt lat="51.212021963188" lon="4.507234793894">
        <ele>0</ele>
        <time>2020-06-27T16:47:27Z</time>
      </trkpt>
      <trkpt lat="51.212024393939" lon="4.507201266294">
        <ele>0</ele>
        <time>2020-06-27T16:48:59Z</time>
      </trkpt>
      <trkpt lat="51.212027243785" lon="4.506332482359">
        <ele>0</ele>
        <time>2020-06-27T16:49:23Z</time>
      </trkpt>
      <trkpt lat="51.212016012039" lon="4.505469398116">
        <ele>0</ele>
        <time>2020-06-27T16:49:42Z</time>
      </trkpt>
      <trkpt lat="51.212029925993" lon="4.504557028301">
        <ele>0</ele>
        <time>2020-06-27T16:49:59Z</time>
      </trkpt>
      <trkpt lat="51.212018107514" lon="4.503674330412">
        <ele>0</ele>
        <time>2020-06-27T16:50:17Z</time>
      </trkpt>
      <trkpt lat="51.212002014266" lon="4.502813593101">
        <ele>0</ele>
        <time>2020-06-27T16:50:32Z</time>
      </trkpt>
      <trkpt lat="51.211988435588" lon="4.501946737003">
        <ele>0</ele>
        <time>2020-06-27T16:50:49Z</time>
      </trkpt>
      <trkpt lat="51.211981981525" lon="4.501040653613">
        <ele>0</ele>
        <time>2020-06-27T16:51:07Z</time>
      </trkpt>
      <trkpt lat="51.211963541345" lon="4.500167678728">
        <ele>0</ele>
        <time>2020-06-27T16:51:23Z</time>
      </trkpt>
      <trkpt lat="51.211940910215" lon="4.499298978612">
        <ele>0</ele>
        <time>2020-06-27T16:51:42Z</time>
      </trkpt>
      <trkpt lat="51.211948370106" lon="4.498418460017">
        <ele>0.6</ele>
        <time>2020-06-27T16:52:03Z</time>
      </trkpt>
      <trkpt lat="51.212202928409" lon="4.497642379896">
        <ele>0</ele>
        <time>2020-06-27T16:52:24Z</time>
      </trkpt>
      <trkpt lat="51.212509957406" lon="4.496887841258">
        <ele>0</ele>
        <time>2020-06-27T16:52:40Z</time>
      </trkpt>
      <trkpt lat="51.21259260294" lon="4.496497831451">
        <ele>0</ele>
        <time>2020-06-27T16:52:53Z</time>
      </trkpt>
      <trkpt lat="51.212651108602" lon="4.496460951091">
        <ele>0</ele>
        <time>2020-06-27T16:53:07Z</time>
      </trkpt>
      <trkpt lat="51.213191992609" lon="4.496546278833">
        <ele>0.2</ele>
        <time>2020-06-27T16:53:24Z</time>
      </trkpt>
      <trkpt lat="51.213803368395" lon="4.49625651655">
        <ele>0</ele>
        <time>2020-06-27T16:53:41Z</time>
      </trkpt>
      <trkpt lat="51.214349868275" lon="4.49604193991">
        <ele>0</ele>
        <time>2020-06-27T16:53:56Z</time>
      </trkpt>
      <trkpt lat="51.214913383412" lon="4.495922246378">
        <ele>0</ele>
        <time>2020-06-27T16:54:11Z</time>
      </trkpt>
      <trkpt lat="51.215354941904" lon="4.495414219419">
        <ele>1.4</ele>
        <time>2020-06-27T16:54:27Z</time>
      </trkpt>
      <trkpt lat="51.215865315795" lon="4.495550090018">
        <ele>2</ele>
        <time>2020-06-27T16:54:47Z</time>
      </trkpt>
      <trkpt lat="51.21641139658" lon="4.495791656376">
        <ele>1.6</ele>
        <time>2020-06-27T16:55:03Z</time>
      </trkpt>
      <trkpt lat="51.216960913944" lon="4.495947643535">
        <ele>1</ele>
        <time>2020-06-27T16:55:17Z</time>
      </trkpt>
      <trkpt lat="51.217511018041" lon="4.496129446946">
        <ele>0.8</ele>
        <time>2020-06-27T16:55:31Z</time>
      </trkpt>
      <trkpt lat="51.218024828511" lon="4.496390878407">
        <ele>3.2</ele>
        <time>2020-06-27T16:55:45Z</time>
      </trkpt>
      <trkpt lat="51.218554816048" lon="4.496653148058">
        <ele>8.4</ele>
        <time>2020-06-27T16:56:00Z</time>
      </trkpt>
      <trkpt lat="51.2190667825" lon="4.496952381888">
        <ele>7.8</ele>
        <time>2020-06-27T16:56:15Z</time>
      </trkpt>
      <trkpt lat="51.219578497495" lon="4.497273157201">
        <ele>6</ele>
        <time>2020-06-27T16:56:31Z</time>
      </trkpt>
      <trkpt lat="51.220117286027" lon="4.497540455992">
        <ele>5.4</ele>
        <time>2020-06-27T16:56:48Z</time>
      </trkpt>
      <trkpt lat="51.220608130091" lon="4.497889729765">
        <ele>5.2</ele>
        <time>2020-06-27T16:57:07Z</time>
      </trkpt>
      <trkpt lat="51.220990680007" lon="4.498157782927">
        <ele>4</ele>
        <time>2020-06-27T16:57:25Z</time>
      </trkpt>
      <trkpt lat="51.221118923077" lon="4.498083100198">
        <ele>2.6</ele>
        <time>2020-06-27T16:58:38Z</time>
      </trkpt>
      <trkpt lat="51.221122443475" lon="4.497888556299">
        <ele>2.2</ele>
        <time>2020-06-27T16:58:45Z</time>
      </trkpt>
      <trkpt lat="51.220605364064" lon="4.497573480678">
        <ele>1.2</ele>
        <time>2020-06-27T16:59:02Z</time>
      </trkpt>
      <trkpt lat="51.220267824951" lon="4.497324202972">
        <ele>0</ele>
        <time>2020-06-27T16:59:14Z</time>
      </trkpt>
      <trkpt lat="51.220201021208" lon="4.496535717639">
        <ele>3.8</ele>
        <time>2020-06-27T16:59:39Z</time>
      </trkpt>
      <trkpt lat="51.219919640825" lon="4.495805151235">
        <ele>5</ele>
        <time>2020-06-27T17:00:01Z</time>
      </trkpt>
      <trkpt lat="51.219393089867" lon="4.495694174879">
        <ele>3.8</ele>
        <time>2020-06-27T17:00:22Z</time>
      </trkpt>
      <trkpt lat="51.218839800648" lon="4.495701383313">
        <ele>0.4</ele>
        <time>2020-06-27T17:00:37Z</time>
      </trkpt>
      <trkpt lat="51.218296653528" lon="4.495686882626">
        <ele>0</ele>
        <time>2020-06-27T17:00:49Z</time>
      </trkpt>
      <trkpt lat="51.217980572079" lon="4.495038123566">
        <ele>0</ele>
        <time>2020-06-27T17:01:11Z</time>
      </trkpt>
      <trkpt lat="51.217709082338" lon="4.494261959626">
        <ele>0</ele>
        <time>2020-06-27T17:01:33Z</time>
      </trkpt>
      <trkpt lat="51.21758821534" lon="4.493430894241">
        <ele>0</ele>
        <time>2020-06-27T17:01:53Z</time>
      </trkpt>
      <trkpt lat="51.217570110436" lon="4.492523637385">
        <ele>0</ele>
        <time>2020-06-27T17:02:13Z</time>
      </trkpt>
      <trkpt lat="51.217552676084" lon="4.49234049287">
        <ele>0</ele>
        <time>2020-06-27T17:02:16Z</time>
      </trkpt>
      <trkpt lat="51.217513448792" lon="4.492035643167">
        <ele>0</ele>
        <time>2020-06-27T17:02:21Z</time>
      </trkpt>
      <trkpt lat="51.217491069119" lon="4.491570363898">
        <ele>0</ele>
        <time>2020-06-27T17:02:29Z</time>
      </trkpt>
      <trkpt lat="51.217505653625" lon="4.491459890456">
        <ele>0</ele>
        <time>2020-06-27T17:02:31Z</time>
      </trkpt>
      <trkpt lat="51.217483609228" lon="4.491363582425">
        <ele>0</ele>
        <time>2020-06-27T17:02:33Z</time>
      </trkpt>
      <trkpt lat="51.217452093284" lon="4.490506030236">
        <ele>0</ele>
        <time>2020-06-27T17:02:51Z</time>
      </trkpt>
      <trkpt lat="51.217378332564" lon="4.489646214934">
        <ele>1.4</ele>
        <time>2020-06-27T17:03:09Z</time>
      </trkpt>
      <trkpt lat="51.21729317246" lon="4.488761337751">
        <ele>2</ele>
        <time>2020-06-27T17:03:26Z</time>
      </trkpt>
      <trkpt lat="51.217193344031" lon="4.487890961255">
        <ele>0.6</ele>
        <time>2020-06-27T17:03:46Z</time>
      </trkpt>
      <trkpt lat="51.217131485609" lon="4.486993511222">
        <ele>0</ele>
        <time>2020-06-27T17:04:07Z</time>
      </trkpt>
      <trkpt lat="51.217094940525" lon="4.486691176089">
        <ele>0</ele>
        <time>2020-06-27T17:04:14Z</time>
      </trkpt>
      <trkpt lat="51.21701824614" lon="4.486598807551">
        <ele>0</ele>
        <time>2020-06-27T17:04:18Z</time>
      </trkpt>
      <trkpt lat="51.216775590135" lon="4.486422703832">
        <ele>0</ele>
        <time>2020-06-27T17:04:28Z</time>
      </trkpt>
      <trkpt lat="51.216784894044" lon="4.485559284313">
        <ele>0</ele>
        <time>2020-06-27T17:04:44Z</time>
      </trkpt>
      <trkpt lat="51.216846333371" lon="4.484898371498">
        <ele>0</ele>
        <time>2020-06-27T17:04:58Z</time>
      </trkpt>
      <trkpt lat="51.216812805771" lon="4.484808433711">
        <ele>0</ele>
        <time>2020-06-27T17:05:01Z</time>
      </trkpt>
      <trkpt lat="51.216873490727" lon="4.483913079153">
        <ele>0</ele>
        <time>2020-06-27T17:05:24Z</time>
      </trkpt>
      <trkpt lat="51.21688413574" lon="4.483026441771">
        <ele>0</ele>
        <time>2020-06-27T17:05:44Z</time>
      </trkpt>
      <trkpt lat="51.216973319156" lon="4.482182300622">
        <ele>0.4</ele>
        <time>2020-06-27T17:06:06Z</time>
      </trkpt>
      <trkpt lat="51.216986478739" lon="4.482171739428">
        <ele>0.4</ele>
        <time>2020-06-27T17:06:07Z</time>
      </trkpt>
      <trkpt lat="51.217001566159" lon="4.482154724171">
        <ele>0</ele>
        <time>2020-06-27T17:06:11Z</time>
      </trkpt>
      <trkpt lat="51.217033082103" lon="4.482105187142">
        <ele>0</ele>
        <time>2020-06-27T17:06:14Z</time>
      </trkpt>
      <trkpt lat="51.216996872295" lon="4.4812571065">
        <ele>0</ele>
        <time>2020-06-27T17:06:34Z</time>
      </trkpt>
      <trkpt lat="51.217070633015" lon="4.480408271487">
        <ele>0</ele>
        <time>2020-06-27T17:06:52Z</time>
      </trkpt>
      <trkpt lat="51.217119499492" lon="4.479513252205">
        <ele>0</ele>
        <time>2020-06-27T17:07:08Z</time>
      </trkpt>
      <trkpt lat="51.217158559146" lon="4.478625525176">
        <ele>0.8</ele>
        <time>2020-06-27T17:07:29Z</time>
      </trkpt>
      <trkpt lat="51.217217483903" lon="4.477749365169">
        <ele>0</ele>
        <time>2020-06-27T17:07:46Z</time>
      </trkpt>
      <trkpt lat="51.217258890489" lon="4.476863398339">
        <ele>0</ele>
        <time>2020-06-27T17:08:06Z</time>
      </trkpt>
      <trkpt lat="51.217306164405" lon="4.475957482587">
        <ele>1</ele>
        <time>2020-06-27T17:08:28Z</time>
      </trkpt>
      <trkpt lat="51.217327119155" lon="4.475040921822">
        <ele>0</ele>
        <time>2020-06-27T17:08:43Z</time>
      </trkpt>
      <trkpt lat="51.21738704974" lon="4.474174903914">
        <ele>0</ele>
        <time>2020-06-27T17:09:00Z</time>
      </trkpt>
      <trkpt lat="51.217413452725" lon="4.473296983708">
        <ele>0</ele>
        <time>2020-06-27T17:09:15Z</time>
      </trkpt>
      <trkpt lat="51.217418481865" lon="4.472428702687">
        <ele>0</ele>
        <time>2020-06-27T17:09:30Z</time>
      </trkpt>
      <trkpt lat="51.217420409702" lon="4.471556985087">
        <ele>0</ele>
        <time>2020-06-27T17:09:46Z</time>
      </trkpt>
      <trkpt lat="51.217523423253" lon="4.470678897243">
        <ele>0.2</ele>
        <time>2020-06-27T17:10:04Z</time>
      </trkpt>
      <trkpt lat="51.217584443485" lon="4.469823105253">
        <ele>2.4</ele>
        <time>2020-06-27T17:10:19Z</time>
      </trkpt>
      <trkpt lat="51.217539097406" lon="4.468932779835">
        <ele>4.6</ele>
        <time>2020-06-27T17:10:38Z</time>
      </trkpt>
      <trkpt lat="51.21759659724" lon="4.468050417222">
        <ele>0</ele>
        <time>2020-06-27T17:10:58Z</time>
      </trkpt>
      <trkpt lat="51.21760665552" lon="4.467928460577">
        <ele>0</ele>
        <time>2020-06-27T17:10:59Z</time>
      </trkpt>
      <trkpt lat="51.217643452061" lon="4.467047606706">
        <ele>2.2</ele>
        <time>2020-06-27T17:11:15Z</time>
      </trkpt>
      <trkpt lat="51.217692402357" lon="4.466170021776">
        <ele>5.8</ele>
        <time>2020-06-27T17:11:40Z</time>
      </trkpt>
      <trkpt lat="51.217727271061" lon="4.465285060774">
        <ele>4</ele>
        <time>2020-06-27T17:12:03Z</time>
      </trkpt>
      <trkpt lat="51.217699275515" lon="4.464705200932">
        <ele>0.4</ele>
        <time>2020-06-27T17:12:14Z</time>
      </trkpt>
      <trkpt lat="51.217765408706" lon="4.463855192453">
        <ele>2.4</ele>
        <time>2020-06-27T17:12:32Z</time>
      </trkpt>
      <trkpt lat="51.217765408706" lon="4.462977356066">
        <ele>8</ele>
        <time>2020-06-27T17:12:50Z</time>
      </trkpt>
      <trkpt lat="51.217820226332" lon="4.462080660404">
        <ele>7.4</ele>
        <time>2020-06-27T17:13:08Z</time>
      </trkpt>
      <trkpt lat="51.217893819414" lon="4.461198800705">
        <ele>7.8</ele>
        <time>2020-06-27T17:13:29Z</time>
      </trkpt>
      <trkpt lat="51.217980655898" lon="4.460318701205">
        <ele>11.8</ele>
        <time>2020-06-27T17:13:51Z</time>
      </trkpt>
      <trkpt lat="51.218007729435" lon="4.459418652783">
        <ele>7.4</ele>
        <time>2020-06-27T17:14:08Z</time>
      </trkpt>
      <trkpt lat="51.218052237324" lon="4.458564034259">
        <ele>3.8</ele>
        <time>2020-06-27T17:14:27Z</time>
      </trkpt>
      <trkpt lat="51.218027343081" lon="4.457652167358">
        <ele>5.8</ele>
        <time>2020-06-27T17:14:48Z</time>
      </trkpt>
      <trkpt lat="51.218341245236" lon="4.4570082698">
        <ele>0</ele>
        <time>2020-06-27T17:15:06Z</time>
      </trkpt>
      <trkpt lat="51.218807195057" lon="4.456456321685">
        <ele>4.2</ele>
        <time>2020-06-27T17:15:26Z</time>
      </trkpt>
      <trkpt lat="51.219282448787" lon="4.456001100696">
        <ele>7.8</ele>
        <time>2020-06-27T17:15:46Z</time>
      </trkpt>
      <trkpt lat="51.219778573448" lon="4.455623999015">
        <ele>7</ele>
        <time>2020-06-27T17:16:08Z</time>
      </trkpt>
      <trkpt lat="51.219897093514" lon="4.455566163905">
        <ele>7.4</ele>
        <time>2020-06-27T17:16:15Z</time>
      </trkpt>
      <trkpt lat="51.219906313604" lon="4.455592147795">
        <ele>7.2</ele>
        <time>2020-06-27T17:16:18Z</time>
      </trkpt>
      <trkpt lat="51.219987785672" lon="4.455581335144">
        <ele>7.2</ele>
        <time>2020-06-27T17:17:22Z</time>
      </trkpt>
      <trkpt lat="51.22000723168" lon="4.455554429245">
        <ele>7</ele>
        <time>2020-06-27T17:17:24Z</time>
      </trkpt>
      <trkpt lat="51.220469325827" lon="4.455049168313">
        <ele>5.6</ele>
        <time>2020-06-27T17:17:48Z</time>
      </trkpt>
      <trkpt lat="51.220853133028" lon="4.454470901032">
        <ele>3.2</ele>
        <time>2020-06-27T17:18:06Z</time>
      </trkpt>
      <trkpt lat="51.221464424995" lon="4.454460591295">
        <ele>0.8</ele>
        <time>2020-06-27T17:18:22Z</time>
      </trkpt>
      <trkpt lat="51.22202307863" lon="4.454468889376">
        <ele>2.2</ele>
        <time>2020-06-27T17:18:39Z</time>
      </trkpt>
      <trkpt lat="51.222582905731" lon="4.454476768362">
        <ele>2.4</ele>
        <time>2020-06-27T17:18:57Z</time>
      </trkpt>
      <trkpt lat="51.223143990117" lon="4.45450711084">
        <ele>2.6</ele>
        <time>2020-06-27T17:19:13Z</time>
      </trkpt>
      <trkpt lat="51.223714797507" lon="4.454463273503">
        <ele>10.6</ele>
        <time>2020-06-27T17:19:30Z</time>
      </trkpt>
      <trkpt lat="51.224268086726" lon="4.454444498047">
        <ele>23.8</ele>
        <time>2020-06-27T17:19:45Z</time>
      </trkpt>
      <trkpt lat="51.224823890515" lon="4.454486910461">
        <ele>18</ele>
        <time>2020-06-27T17:19:59Z</time>
      </trkpt>
      <trkpt lat="51.2249257306" lon="4.454421866917">
        <ele>15.6</ele>
        <time>2020-06-27T17:20:03Z</time>
      </trkpt>
      <trkpt lat="51.224953726146" lon="4.453564733823">
        <ele>9.8</ele>
        <time>2020-06-27T17:20:20Z</time>
      </trkpt>
      <trkpt lat="51.224995887103" lon="4.452975067158">
        <ele>8.6</ele>
        <time>2020-06-27T17:20:31Z</time>
      </trkpt>
      <trkpt lat="51.225152712452" lon="4.452151126388">
        <ele>6.8</ele>
        <time>2020-06-27T17:20:48Z</time>
      </trkpt>
      <trkpt lat="51.225450353721" lon="4.451387619117">
        <ele>6.6</ele>
        <time>2020-06-27T17:21:06Z</time>
      </trkpt>
      <trkpt lat="51.225802142064" lon="4.450710613054">
        <ele>6</ele>
        <time>2020-06-27T17:21:24Z</time>
      </trkpt>
      <trkpt lat="51.226196175183" lon="4.450102506209">
        <ele>7.4</ele>
        <time>2020-06-27T17:21:43Z</time>
      </trkpt>
      <trkpt lat="51.226616778925" lon="4.449514180648">
        <ele>9</ele>
        <time>2020-06-27T17:22:03Z</time>
      </trkpt>
      <trkpt lat="51.226835211239" lon="4.449298095266">
        <ele>10</ele>
        <time>2020-06-27T17:22:14Z</time>
      </trkpt>
      <trkpt lat="51.22696756144" lon="4.449380489343">
        <ele>8.6</ele>
        <time>2020-06-27T17:22:23Z</time>
      </trkpt>
      <trkpt lat="51.227052973001" lon="4.449318211826">
        <ele>7.6</ele>
        <time>2020-06-27T17:22:30Z</time>
      </trkpt>
      <trkpt lat="51.227337287049" lon="4.448577168047">
        <ele>5.6</ele>
        <time>2020-06-27T17:22:47Z</time>
      </trkpt>
      <trkpt lat="51.227717909128" lon="4.447893288826">
        <ele>9.6</ele>
        <time>2020-06-27T17:23:05Z</time>
      </trkpt>
      <trkpt lat="51.22813096916" lon="4.447286774542">
        <ele>7.6</ele>
        <time>2020-06-27T17:23:22Z</time>
      </trkpt>
      <trkpt lat="51.228278155324" lon="4.447140175111">
        <ele>8.2</ele>
        <time>2020-06-27T17:23:29Z</time>
      </trkpt>
      <trkpt lat="51.228674032461" lon="4.447753227277">
        <ele>4.8</ele>
        <time>2020-06-27T17:23:45Z</time>
      </trkpt>
      <trkpt lat="51.228967231323" lon="4.448474741229">
        <ele>5.8</ele>
        <time>2020-06-27T17:24:11Z</time>
      </trkpt>
      <trkpt lat="51.228963962382" lon="4.448509274657">
        <ele>6.2</ele>
        <time>2020-06-27T17:24:12Z</time>
      </trkpt>
      <trkpt lat="51.228577556792" lon="4.4491041381">
        <ele>3</ele>
        <time>2020-06-27T17:24:35Z</time>
      </trkpt>
      <trkpt lat="51.228558362241" lon="4.449188711471">
        <ele>1.8</ele>
        <time>2020-06-27T17:24:38Z</time>
      </trkpt>
      <trkpt lat="51.228437914338" lon="4.44926926153">
        <ele>0</ele>
        <time>2020-06-27T17:25:04Z</time>
      </trkpt>
    </trkseg>
  </trk>
</gpx>